Scout — WCZ2046 — position and weather

sailwx.info

Track history (hours):
 
Tides and Currents Weather Stations Pressure Air Temp Water Temp Dewpoint Dewpoint Depression Visibility Wind Speed Wind Dir Waves Ship Positions

Scout

Owner: Crowley Marine Services, SEATTLE, WA. More information available from US FCC via Universal Licensing System and Coast Guard Vessel Documentation Center.

Last reported at 2015-May-06 13:33 UTC. Time now 2015-May-06 14:30 UTC.
Position N 32°42' W 117°09'.

; draft 5.6 m.

Type: Tug. MMSI: 366764730.

Date/timePositionNaut miles runAvg speedWind from/ knotsBaromVisibWave heightAir tempDewpointWater temp
2015-May-06 13:33N 32°42' W 117°09'3 2.9
2015-May-06 12:32N 32°39' W 117°07'3 1.0
2015-May-06 09:25N 32°42' W 117°09'3 3.2
2015-May-06 08:33N 32°39' W 117°07'3 0.4
2015-May-06 00:33N 32°42' W 117°10'0 0.0
2015-May-05 23:29N 32°42' W 117°10'3 3.8
2015-May-05 22:33N 32°39' W 117°07'3 3.1
2015-May-05 21:33N 32°42' W 117°09'0 0.2
2015-May-05 20:31N 32°42' W 117°09'0 0.0
2015-May-05 15:18N 32°42' W 117°09'0 0.0
2015-May-05 14:31N 32°42' W 117°09'0 0.0
2015-May-05 13:16N 32°42' W 117°09'3 4.2
2015-May-05 12:33N 32°39' W 117°07'1 1.4
2015-May-05 11:33N 32°40' W 117°08'2 0.3
2015-May-05 06:24N 32°42' W 117°09'0 0.0
2015-May-04 23:24N 32°42' W 117°09'3 3.8
2015-May-04 22:33N 32°39' W 117°07'3 1.6
2015-May-04 20:32N 32°42' W 117°09'1 1.4
2015-May-04 19:33N 32°41' W 117°08'1 0.6
2015-May-04 17:27N 32°42' W 117°09'0 0.0
2015-May-04 14:31N 32°42' W 117°09'3 2.9
2015-May-04 13:22N 32°39' W 117°07'3 3.9
2015-May-04 12:31N 32°42' W 117°09'0 0.0
2015-May-04 11:31N 32°42' W 117°09'0 0.0
2015-May-04 10:04N 32°42' W 117°09'0 0.0
2015-May-04 09:33N 32°42' W 117°09'0 0.0
2015-May-04 08:27N 32°42' W 117°09'2 0.4
2015-May-04 02:33N 32°40' W 117°08'2 2.2
2015-May-04 01:33N 32°42' W 117°09'0 0.0
2015-May-03 22:32N 32°42' W 117°09'0 0.0
2015-May-03 21:27N 32°42' W 117°09'0 0.0
2015-May-03 13:11N 32°42' W 117°09'0 0.0
2015-May-03 12:22N 32°42' W 117°09'0 0.0
2015-May-03 11:33N 32°42' W 117°09'1 0.8
2015-May-03 10:33N 32°42' W 117°10'1 0.8
2015-May-03 09:29N 32°42' W 117°09'0 0.0
2015-May-03 08:32N 32°42' W 117°09'0 0.0
2015-May-02 23:14N 32°42' W 117°09'0 0.0
2015-May-02 22:09N 32°42' W 117°09'0 0.0
2015-May-02 21:14N 32°42' W 117°09'0 0.0
2015-May-02 20:27N 32°42' W 117°09'0 0.0
2015-May-02 19:20N 32°42' W 117°09'1 1.6
2015-May-02 18:33N 32°41' W 117°08'1 1.2
2015-May-02 17:28N 32°42' W 117°09'0 0.0
2015-May-02 16:18N 32°42' W 117°09'0 0.0
2015-May-02 15:04N 32°42' W 117°09'3 6.0
2015-May-02 14:33N 32°39' W 117°07'3 1.3
2015-May-02 12:10N 32°42' W 117°09'0 0.0
2015-May-02 11:29N 32°42' W 117°09'0 0.0
2015-May-02 10:24N 32°42' W 117°09'0 0.0
2015-May-02 09:31N 32°42' W 117°09'0 0.0
2015-May-02 08:33N 32°42' W 117°09'0 0.0
2015-May-02 07:27N 32°42' W 117°09'0 0.0
2015-May-02 06:28N 32°42' W 117°09'0 0.0
2015-May-02 01:20N 32°42' W 117°09'0 0.0
2015-May-02 00:33N 32°42' W 117°09'2 1.8
2015-May-01 23:28N 32°40' W 117°08'2 1.9
2015-May-01 22:33N 32°42' W 117°09'0 0.2
2015-May-01 21:32N 32°42' W 117°09'0 0.0
2015-May-01 20:28N 32°42' W 117°09'0 0.0
2015-May-01 19:25N 32°42' W 117°09'0 0.0
2015-May-01 18:24N 32°42' W 117°09'0 0.0
2015-May-01 17:04N 32°42' W 117°09'0 0.0
2015-May-01 15:30N 32°42' W 117°09'0 0.0
2015-May-01 14:33N 32°42' W 117°09'3 3.1
2015-May-01 13:33N 32°39' W 117°07'2 2.3
2015-May-01 12:33N 32°41' W 117°09'1 0.7
2015-May-01 11:30N 32°42' W 117°09'0 0.5
2015-May-01 10:33N 32°42' W 117°10'1 0.5
2015-May-01 09:32N 32°42' W 117°10'1 0.4
2015-May-01 07:21N 32°42' W 117°09'0 0.0
2015-May-01 06:24N 32°42' W 117°09'0 0.0
2015-May-01 05:24N 32°42' W 117°09'0 0.0
2015-May-01 04:33N 32°42' W 117°09'0 0.0
2015-May-01 03:31N 32°42' W 117°09'0 0.0
2015-Apr-30 22:17N 32°42' W 117°09'0 0.0
2015-Apr-30 21:31N 32°42' W 117°09'0 0.0
2015-Apr-30 20:29N 32°42' W 117°09'0 0.0
2015-Apr-30 19:31N 32°42' W 117°09'0 0.0
2015-Apr-30 16:33N 32°42' W 117°09'1 0.9
2015-Apr-30 15:33N 32°41' W 117°09'1 0.7
2015-Apr-30 14:33N 32°42' W 117°09'0 0.2
2015-Apr-30 13:23N 32°42' W 117°09'0 0.0
2015-Apr-30 12:33N 32°42' W 117°09'0 0.0
2015-Apr-30 11:08N 32°42' W 117°09'0 0.0
2015-Apr-30 10:31N 32°42' W 117°09'0 0.0
2015-Apr-30 09:25N 32°42' W 117°09'0 0.0
2015-Apr-30 08:06N 32°42' W 117°09'0 0.0
2015-Apr-30 07:26N 32°42' W 117°09'0 0.0
2015-Apr-30 06:21N 32°42' W 117°09'0 0.0
2015-Apr-30 04:06N 32°42' W 117°09'0 0.0
2015-Apr-30 03:27N 32°42' W 117°09'0 0.0
2015-Apr-29 19:33N 32°42' W 117°09'2 2.1
2015-Apr-29 18:33N 32°40' W 117°08'2 0.5
2015-Apr-29 14:25N 32°42' W 117°09'3 3.5
2015-Apr-29 13:33N 32°39' W 117°07'3 3.0
2015-Apr-29 12:33N 32°42' W 117°09'0 0.0
2015-Apr-29 11:27N 32°42' W 117°09'0 0.0
2015-Apr-29 10:29N 32°42' W 117°09'0 0.0
2015-Apr-29 09:28N 32°42' W 117°09'0 0.0
2015-Apr-29 08:33N 32°42' W 117°09'0 0.0
2015-Apr-29 07:33N 32°42' W 117°09'0 0.0
2015-Apr-29 06:31N 32°42' W 117°09'0 0.0
2015-Apr-29 05:25N 32°42' W 117°09'0 0.0
2015-Apr-29 04:22N 32°42' W 117°09'0 0.0
2015-Apr-29 02:14N 32°42' W 117°09'0 0.0
2015-Apr-29 01:32N 32°42' W 117°09'1 0.5
2015-Apr-28 23:33N 32°41' W 117°08'1 1.2
2015-Apr-28 22:32N 32°40' W 117°08'2 2.3
2015-Apr-28 21:33N 32°42' W 117°09'0 0.0
2015-Apr-28 20:30N 32°42' W 117°09'0 0.0
2015-Apr-28 19:19N 32°42' W 117°09'0 0.0
2015-Apr-28 18:33N 32°42' W 117°09'0 0.0
2015-Apr-28 17:28N 32°42' W 117°09'0 0.0
2015-Apr-28 16:33N 32°42' W 117°09'0 0.0
2015-Apr-28 15:33N 32°42' W 117°09'0 0.0
2015-Apr-28 14:31N 32°42' W 117°09'0 0.0
2015-Apr-28 13:23N 32°42' W 117°09'3 3.6
2015-Apr-28 12:33N 32°39' W 117°07'3 3.0
2015-Apr-28 11:33N 32°42' W 117°09'0 0.0
2015-Apr-28 10:33N 32°42' W 117°09'2 2.0
2015-Apr-28 09:33N 32°40' W 117°08'2 1.9
2015-Apr-28 08:33N 32°42' W 117°09'0 0.0
2015-Apr-28 07:33N 32°42' W 117°09'0 0.0
2015-Apr-28 06:33N 32°42' W 117°09'0 0.0
2015-Apr-28 05:32N 32°42' W 117°09'0 0.0
2015-Apr-28 04:13N 32°42' W 117°09'0 0.0
2015-Apr-28 03:30N 32°42' W 117°09'0 0.0
2015-Apr-27 23:32N 32°42' W 117°09'0 0.0
2015-Apr-27 22:32N 32°42' W 117°09'0 0.0
2015-Apr-27 21:33N 32°42' W 117°09'0 0.0
2015-Apr-27 20:33N 32°42' W 117°09'0 0.0
2015-Apr-27 19:33N 32°42' W 117°09'0 0.0
2015-Apr-27 18:33N 32°42' W 117°09'0 0.0
2015-Apr-27 17:33N 32°42' W 117°09'0 0.0
2015-Apr-27 16:32N 32°42' W 117°09'0 0.0
2015-Apr-27 15:18N 32°42' W 117°09'0 0.0
2015-Apr-27 14:05N 32°42' W 117°09'3 5.8
2015-Apr-27 13:33N 32°39' W 117°07'3 3.0
2015-Apr-27 12:32N 32°42' W 117°09'0 0.0
2015-Apr-27 11:33N 32°42' W 117°09'3 2.7
2015-Apr-27 10:33N 32°39' W 117°08'1 0.8
2015-Apr-27 09:33N 32°40' W 117°08'2 0.7
2015-Apr-27 06:33N 32°42' W 117°09'0 0.0
2015-Apr-27 05:28N 32°42' W 117°09'0 0.0
2015-Apr-27 04:15N 32°42' W 117°09'0 0.0
2015-Apr-27 02:30N 32°42' W 117°09'0 0.0
2015-Apr-27 01:31N 32°42' W 117°09'3 3.4
2015-Apr-27 00:33N 32°43' W 117°13'2 1.5
2015-Apr-26 23:33N 32°42' W 117°14'4 4.3
2015-Apr-26 22:33N 32°41' W 117°09'3 2.7
2015-Apr-26 21:33N 32°39' W 117°07'3 3.0
2015-Apr-26 20:33N 32°42' W 117°09'0 0.0
2015-Apr-26 19:33N 32°42' W 117°09'0 0.0
2015-Apr-26 18:33N 32°42' W 117°09'0 0.0
2015-Apr-26 17:33N 32°42' W 117°09'0 0.0
2015-Apr-26 16:33N 32°42' W 117°09'0 0.0
2015-Apr-26 15:32N 32°42' W 117°09'0 0.0
2015-Apr-26 14:33N 32°42' W 117°09'  
Track history (hours):
 
Tides and Currents Weather Stations Pressure Air Temp Water Temp Dewpoint Dewpoint Depression Visibility Wind Speed Wind Dir Waves Ship Positions

Scout

Owner: Crowley Marine Services, SEATTLE, WA. More information available from US FCC via Universal Licensing System and Coast Guard Vessel Documentation Center.

Last reported at 2015-May-06 13:33 UTC. Time now 2015-May-06 14:30 UTC.
Position N 32°42' W 117°09'.

; draft 5.6 m.

Type: Tug. MMSI: 366764730.

Date/timePositionNaut miles runAvg speedWind from/ knotsBaromVisibWave heightAir tempDewpointWater temp
2015-May-06 13:33N 32°42' W 117°09'3 2.9
2015-May-06 12:32N 32°39' W 117°07'3 1.0
2015-May-06 09:25N 32°42' W 117°09'3 3.2
2015-May-06 08:33N 32°39' W 117°07'3 0.4
2015-May-06 00:33N 32°42' W 117°10'0 0.0
2015-May-05 23:29N 32°42' W 117°10'3 3.8
2015-May-05 22:33N 32°39' W 117°07'3 3.1
2015-May-05 21:33N 32°42' W 117°09'0 0.2
2015-May-05 20:31N 32°42' W 117°09'0 0.0
2015-May-05 15:18N 32°42' W 117°09'0 0.0
2015-May-05 14:31N 32°42' W 117°09'0 0.0
2015-May-05 13:16N 32°42' W 117°09'3 4.2
2015-May-05 12:33N 32°39' W 117°07'1 1.4
2015-May-05 11:33N 32°40' W 117°08'2 0.3
2015-May-05 06:24N 32°42' W 117°09'0 0.0
2015-May-04 23:24N 32°42' W 117°09'3 3.8
2015-May-04 22:33N 32°39' W 117°07'3 1.6
2015-May-04 20:32N 32°42' W 117°09'1 1.4
2015-May-04 19:33N 32°41' W 117°08'1 0.6
2015-May-04 17:27N 32°42' W 117°09'0 0.0
2015-May-04 14:31N 32°42' W 117°09'3 2.9
2015-May-04 13:22N 32°39' W 117°07'3 3.9
2015-May-04 12:31N 32°42' W 117°09'0 0.0
2015-May-04 11:31N 32°42' W 117°09'0 0.0
2015-May-04 10:04N 32°42' W 117°09'0 0.0
2015-May-04 09:33N 32°42' W 117°09'0 0.0
2015-May-04 08:27N 32°42' W 117°09'2 0.4
2015-May-04 02:33N 32°40' W 117°08'2 2.2
2015-May-04 01:33N 32°42' W 117°09'0 0.0
2015-May-03 22:32N 32°42' W 117°09'0 0.0
2015-May-03 21:27N 32°42' W 117°09'0 0.0
2015-May-03 13:11N 32°42' W 117°09'0 0.0
2015-May-03 12:22N 32°42' W 117°09'0 0.0
2015-May-03 11:33N 32°42' W 117°09'1 0.8
2015-May-03 10:33N 32°42' W 117°10'1 0.8
2015-May-03 09:29N 32°42' W 117°09'0 0.0
2015-May-03 08:32N 32°42' W 117°09'0 0.0
2015-May-02 23:14N 32°42' W 117°09'0 0.0
2015-May-02 22:09N 32°42' W 117°09'0 0.0
2015-May-02 21:14N 32°42' W 117°09'0 0.0
2015-May-02 20:27N 32°42' W 117°09'0 0.0
2015-May-02 19:20N 32°42' W 117°09'1 1.6
2015-May-02 18:33N 32°41' W 117°08'1 1.2
2015-May-02 17:28N 32°42' W 117°09'0 0.0
2015-May-02 16:18N 32°42' W 117°09'0 0.0
2015-May-02 15:04N 32°42' W 117°09'3 6.0
2015-May-02 14:33N 32°39' W 117°07'3 1.3
2015-May-02 12:10N 32°42' W 117°09'0 0.0
2015-May-02 11:29N 32°42' W 117°09'0 0.0
2015-May-02 10:24N 32°42' W 117°09'0 0.0
2015-May-02 09:31N 32°42' W 117°09'0 0.0
2015-May-02 08:33N 32°42' W 117°09'0 0.0
2015-May-02 07:27N 32°42' W 117°09'0 0.0
2015-May-02 06:28N 32°42' W 117°09'0 0.0
2015-May-02 01:20N 32°42' W 117°09'0 0.0
2015-May-02 00:33N 32°42' W 117°09'2 1.8
2015-May-01 23:28N 32°40' W 117°08'2 1.9
2015-May-01 22:33N 32°42' W 117°09'0 0.2
2015-May-01 21:32N 32°42' W 117°09'0 0.0
2015-May-01 20:28N 32°42' W 117°09'0 0.0
2015-May-01 19:25N 32°42' W 117°09'0 0.0
2015-May-01 18:24N 32°42' W 117°09'0 0.0
2015-May-01 17:04N 32°42' W 117°09'0 0.0
2015-May-01 15:30N 32°42' W 117°09'0 0.0
2015-May-01 14:33N 32°42' W 117°09'3 3.1
2015-May-01 13:33N 32°39' W 117°07'2 2.3
2015-May-01 12:33N 32°41' W 117°09'1 0.7
2015-May-01 11:30N 32°42' W 117°09'0 0.5
2015-May-01 10:33N 32°42' W 117°10'1 0.5
2015-May-01 09:32N 32°42' W 117°10'1 0.4
2015-May-01 07:21N 32°42' W 117°09'0 0.0
2015-May-01 06:24N 32°42' W 117°09'0 0.0
2015-May-01 05:24N 32°42' W 117°09'0 0.0
2015-May-01 04:33N 32°42' W 117°09'0 0.0
2015-May-01 03:31N 32°42' W 117°09'0 0.0
2015-Apr-30 22:17N 32°42' W 117°09'0 0.0
2015-Apr-30 21:31N 32°42' W 117°09'0 0.0
2015-Apr-30 20:29N 32°42' W 117°09'0 0.0
2015-Apr-30 19:31N 32°42' W 117°09'0 0.0
2015-Apr-30 16:33N 32°42' W 117°09'1 0.9
2015-Apr-30 15:33N 32°41' W 117°09'1 0.7
2015-Apr-30 14:33N 32°42' W 117°09'0 0.2
2015-Apr-30 13:23N 32°42' W 117°09'0 0.0
2015-Apr-30 12:33N 32°42' W 117°09'0 0.0
2015-Apr-30 11:08N 32°42' W 117°09'0 0.0
2015-Apr-30 10:31N 32°42' W 117°09'0 0.0
2015-Apr-30 09:25N 32°42' W 117°09'0 0.0
2015-Apr-30 08:06N 32°42' W 117°09'0 0.0
2015-Apr-30 07:26N 32°42' W 117°09'0 0.0
2015-Apr-30 06:21N 32°42' W 117°09'0 0.0
2015-Apr-30 04:06N 32°42' W 117°09'0 0.0
2015-Apr-30 03:27N 32°42' W 117°09'0 0.0
2015-Apr-29 19:33N 32°42' W 117°09'2 2.1
2015-Apr-29 18:33N 32°40' W 117°08'2 0.5
2015-Apr-29 14:25N 32°42' W 117°09'3 3.5
2015-Apr-29 13:33N 32°39' W 117°07'3 3.0
2015-Apr-29 12:33N 32°42' W 117°09'0 0.0
2015-Apr-29 11:27N 32°42' W 117°09'0 0.0
2015-Apr-29 10:29N 32°42' W 117°09'0 0.0
2015-Apr-29 09:28N 32°42' W 117°09'0 0.0
2015-Apr-29 08:33N 32°42' W 117°09'0 0.0
2015-Apr-29 07:33N 32°42' W 117°09'0 0.0
2015-Apr-29 06:31N 32°42' W 117°09'0 0.0
2015-Apr-29 05:25N 32°42' W 117°09'0 0.0
2015-Apr-29 04:22N 32°42' W 117°09'0 0.0
2015-Apr-29 02:14N 32°42' W 117°09'0 0.0
2015-Apr-29 01:32N 32°42' W 117°09'1 0.5
2015-Apr-28 23:33N 32°41' W 117°08'1 1.2
2015-Apr-28 22:32N 32°40' W 117°08'2 2.3
2015-Apr-28 21:33N 32°42' W 117°09'0 0.0
2015-Apr-28 20:30N 32°42' W 117°09'0 0.0
2015-Apr-28 19:19N 32°42' W 117°09'0 0.0
2015-Apr-28 18:33N 32°42' W 117°09'0 0.0
2015-Apr-28 17:28N 32°42' W 117°09'0 0.0
2015-Apr-28 16:33N 32°42' W 117°09'0 0.0
2015-Apr-28 15:33N 32°42' W 117°09'0 0.0
2015-Apr-28 14:31N 32°42' W 117°09'0 0.0
2015-Apr-28 13:23N 32°42' W 117°09'3 3.6
2015-Apr-28 12:33N 32°39' W 117°07'3 3.0
2015-Apr-28 11:33N 32°42' W 117°09'0 0.0
2015-Apr-28 10:33N 32°42' W 117°09'2 2.0
2015-Apr-28 09:33N 32°40' W 117°08'2 1.9
2015-Apr-28 08:33N 32°42' W 117°09'0 0.0
2015-Apr-28 07:33N 32°42' W 117°09'0 0.0
2015-Apr-28 06:33N 32°42' W 117°09'0 0.0
2015-Apr-28 05:32N 32°42' W 117°09'0 0.0
2015-Apr-28 04:13N 32°42' W 117°09'0 0.0
2015-Apr-28 03:30N 32°42' W 117°09'0 0.0
2015-Apr-27 23:32N 32°42' W 117°09'0 0.0
2015-Apr-27 22:32N 32°42' W 117°09'0 0.0
2015-Apr-27 21:33N 32°42' W 117°09'0 0.0
2015-Apr-27 20:33N 32°42' W 117°09'0 0.0
2015-Apr-27 19:33N 32°42' W 117°09'0 0.0
2015-Apr-27 18:33N 32°42' W 117°09'0 0.0
2015-Apr-27 17:33N 32°42' W 117°09'0 0.0
2015-Apr-27 16:32N 32°42' W 117°09'0 0.0
2015-Apr-27 15:18N 32°42' W 117°09'0 0.0
2015-Apr-27 14:05N 32°42' W 117°09'3 5.8
2015-Apr-27 13:33N 32°39' W 117°07'3 3.0
2015-Apr-27 12:32N 32°42' W 117°09'0 0.0
2015-Apr-27 11:33N 32°42' W 117°09'3 2.7
2015-Apr-27 10:33N 32°39' W 117°08'1 0.8
2015-Apr-27 09:33N 32°40' W 117°08'2 0.7
2015-Apr-27 06:33N 32°42' W 117°09'0 0.0
2015-Apr-27 05:28N 32°42' W 117°09'0 0.0
2015-Apr-27 04:15N 32°42' W 117°09'0 0.0
2015-Apr-27 02:30N 32°42' W 117°09'0 0.0
2015-Apr-27 01:31N 32°42' W 117°09'3 3.4
2015-Apr-27 00:33N 32°43' W 117°13'2 1.5
2015-Apr-26 23:33N 32°42' W 117°14'4 4.3
2015-Apr-26 22:33N 32°41' W 117°09'3 2.7
2015-Apr-26 21:33N 32°39' W 117°07'3 3.0
2015-Apr-26 20:33N 32°42' W 117°09'0 0.0
2015-Apr-26 19:33N 32°42' W 117°09'0 0.0
2015-Apr-26 18:33N 32°42' W 117°09'0 0.0
2015-Apr-26 17:33N 32°42' W 117°09'0 0.0
2015-Apr-26 16:33N 32°42' W 117°09'0 0.0
2015-Apr-26 15:32N 32°42' W 117°09'0 0.0
2015-Apr-26 14:33N 32°42' W 117°09'  

Dump ship's entire track history